Terminal Aerodrome Forecast
Issued by NWS Key West, FL

Home | Current Version | Previous Version | Text Only | Print | Product List | Glossary On
Versions: 1 2 3 4 5 6 7 8 9 10 11 12 13 14 15 16 17 18 19 20 21 22 23 24
000
FTUS42 KKEY 241720
TAFEYW
TAF
KEYW 241720Z 2418/2518 33008KT P6SM FEW022 SCT050
     FM242100 34007KT P6SM SCT022 BKN050
     FM250900 35006KT P6SM FEW022 SCT050
     FM251200 36007KT P6SM FEW022=

USA.gov is the U.S. government's official web portal to all federal, state and local government web resources and services.